Time;durP1;ratioP1;P1;durP2;ratioP2;P2;SDS_P1;SDS_P2;PMS_P1;PMS_P2;Temp;Humidity;BMP_temperature;BMP_pressure;BME280_temperature;BME280_humidity;BME280_pressure;Samples;Min_cycle;Max_cycle;Signal;HPM_P1;HPM_P2
2022/06/24 03:01:09;;;;;;;0.80;0.70;;;20.50;83.00;;;;;;5892274;22;20479;-74
2022/06/24 03:03:35;;;;;;;0.90;0.80;;;20.40;83.20;;;;;;5038756;28;20447;-74
2022/06/24 03:06:02;;;;;;;1.07;0.97;;;20.20;83.90;;;;;;5038260;28;20447;-72
2022/06/24 03:08:29;;;;;;;0.70;0.70;;;20.20;83.80;;;;;;5038426;28;20946;-72
2022/06/24 03:10:57;;;;;;;0.80;0.70;;;19.90;84.50;;;;;;5038304;28;20464;-71
2022/06/24 03:13:23;;;;;;;0.80;0.70;;;20.00;84.90;;;;;;5037450;28;20999;-71
2022/06/24 03:15:51;;;;;;;0.90;0.80;;;20.00;84.50;;;;;;5040254;28;20447;-71
2022/06/24 03:18:19;;;;;;;0.70;0.60;;;20.00;84.20;;;;;;5037854;28;20443;-71
2022/06/24 03:20:46;;;;;;;0.80;0.70;;;19.90;85.00;;;;;;5038215;28;20545;-71
2022/06/24 03:23:13;;;;;;;0.80;0.80;;;20.00;84.70;;;;;;5037632;28;20505;-71
2022/06/24 03:25:40;;;;;;;0.70;0.70;;;19.90;84.50;;;;;;5038033;28;20455;-71
2022/06/24 03:28:07;;;;;;;0.70;0.60;;;19.90;84.70;;;;;;5038241;28;20455;-71
2022/06/24 03:30:34;;;;;;;0.90;0.70;;;20.00;84.50;;;;;;5037809;28;20454;-71
2022/06/24 03:33:01;;;;;;;0.70;0.60;;;20.10;84.00;;;;;;5037935;28;20793;-71
2022/06/24 03:35:29;;;;;;;0.80;0.70;;;20.20;84.00;;;;;;5038446;28;20509;-71
2022/06/24 03:37:56;;;;;;;1.00;0.90;;;20.30;83.60;;;;;;5038606;28;20547;-71
2022/06/24 03:40:23;;;;;;;0.90;0.70;;;20.40;83.30;;;;;;5038143;28;20838;-71
2022/06/24 03:42:50;;;;;;;0.90;0.77;;;20.40;83.00;;;;;;5038618;28;20443;-71
2022/06/24 03:45:17;;;;;;;0.90;0.70;;;20.20;83.20;;;;;;5037631;28;20455;-71
2022/06/24 03:47:43;;;;;;;0.87;0.60;;;20.40;83.10;;;;;;5038217;28;20532;-72
2022/06/24 03:50:10;;;;;;;0.80;0.60;;;20.50;82.80;;;;;;5037964;28;20950;-72
2022/06/24 03:52:38;;;;;;;0.80;0.70;;;20.50;82.60;;;;;;5037877;28;20525;-72
2022/06/24 03:55:05;;;;;;;0.90;0.60;;;20.40;82.60;;;;;;5037937;28;20459;-71
2022/06/24 03:57:32;;;;;;;0.80;0.70;;;20.40;82.70;;;;;;5038049;28;20455;-71
2022/06/24 03:59:58;;;;;;;0.83;0.83;;;20.30;82.90;;;;;;5038200;28;20451;-72
2022/06/24 04:02:25;;;;;;;0.70;0.60;;;20.50;82.70;;;;;;5037460;28;20491;-71
2022/06/24 04:04:52;;;;;;;0.70;0.70;;;20.40;82.50;;;;;;5037976;28;20447;-71
2022/06/24 04:07:18;;;;;;;0.70;0.70;;;20.40;82.70;;;;;;5037940;28;20455;-71
2022/06/24 04:09:46;;;;;;;0.70;0.60;;;20.40;82.30;;;;;;5037577;28;20447;-72
2022/06/24 04:12:13;;;;;;;0.70;0.70;;;20.20;82.70;;;;;;5038000;28;20498;-71
2022/06/24 04:17:24;;;;;;;0.70;0.70;;;20.10;83.60;;;;;;5038095;28;20498;-71
2022/06/24 04:19:52;;;;;;;0.70;0.70;;;20.00;84.00;;;;;;5038025;28;20452;-71
2022/06/24 04:22:19;;;;;;;0.97;0.87;;;19.90;84.40;;;;;;5037040;28;20487;-71
2022/06/24 04:24:47;;;;;;;0.70;0.60;;;19.80;84.60;;;;;;5037757;28;20455;-71
2022/06/24 04:27:14;;;;;;;0.80;0.70;;;19.70;85.50;;;;;;5038157;28;20447;-71
2022/06/24 04:29:41;;;;;;;0.80;0.70;;;19.90;84.90;;;;;;5037925;28;20451;-72
2022/06/24 04:32:08;;;;;;;1.03;0.90;;;20.00;84.90;;;;;;5037813;28;20529;-71
2022/06/24 04:34:37;;;;;;;0.70;0.70;;;19.90;84.30;;;;;;5037838;28;20463;-72
2022/06/24 04:37:04;;;;;;;1.00;0.70;;;19.80;84.80;;;;;;5037879;28;20522;-72
2022/06/24 04:39:31;;;;;;;0.90;0.73;;;19.90;84.70;;;;;;5036888;28;20501;-72
2022/06/24 04:41:59;;;;;;;1.77;0.70;;;20.10;84.70;;;;;;5037165;28;20549;-72
2022/06/24 04:44:25;;;;;;;0.80;0.80;;;20.30;83.70;;;;;;5037255;28;20447;-72
2022/06/24 04:46:52;;;;;;;0.70;0.70;;;20.40;83.40;;;;;;5037776;28;20451;-72
2022/06/24 04:49:19;;;;;;;0.90;0.90;;;20.50;82.40;;;;;;5037498;28;20447;-72
2022/06/24 04:51:45;;;;;;;0.83;0.70;;;20.60;82.90;;;;;;5037123;28;20513;-72
2022/06/24 04:54:12;;;;;;;0.90;0.77;;;20.60;83.10;;;;;;5036657;28;20448;-72
2022/06/24 04:56:39;;;;;;;0.90;0.70;;;20.60;83.30;;;;;;5036321;28;21036;-72
2022/06/24 04:59:07;;;;;;;0.80;0.70;;;20.50;82.90;;;;;;5036933;28;20943;-74
2022/06/24 05:01:33;;;;;;;0.80;0.73;;;20.60;82.90;;;;;;5035993;28;20498;-74
2022/06/24 05:04:00;;;;;;;1.00;0.80;;;20.50;83.90;;;;;;5036039;28;20538;-74
2022/06/24 05:06:27;;;;;;;0.93;0.73;;;20.50;83.60;;;;;;5036447;28;20443;-74
2022/06/24 05:08:53;;;;;;;0.70;0.60;;;20.60;84.40;;;;;;5035974;28;20938;-74
2022/06/24 05:11:20;;;;;;;0.83;0.70;;;20.70;84.10;;;;;;5035814;28;20518;-73
2022/06/24 05:13:47;;;;;;;0.90;0.70;;;20.80;82.90;;;;;;5035675;28;20451;-73
2022/06/24 05:16:15;;;;;;;0.90;0.80;;;20.90;83.00;;;;;;5035408;28;20447;-73
2022/06/24 05:18:42;;;;;;;1.00;0.80;;;20.90;83.20;;;;;;5034490;28;20825;-73
2022/06/24 05:21:09;;;;;;;0.80;0.70;;;21.00;83.20;;;;;;5034939;28;20494;-73
2022/06/24 05:23:36;;;;;;;0.90;0.70;;;21.00;83.20;;;;;;5035027;28;20447;-73
2022/06/24 05:26:02;;;;;;;0.97;0.70;;;20.90;82.60;;;;;;5035035;28;20451;-73
2022/06/24 05:28:29;;;;;;;0.90;0.83;;;21.10;82.60;;;;;;5035497;28;20448;-73
2022/06/24 05:30:56;;;;;;;0.80;0.60;;;21.20;80.90;;;;;;5035799;28;20986;-74
2022/06/24 05:33:25;;;;;;;0.80;0.70;;;21.00;82.00;;;;;;5035910;28;20534;-73
2022/06/24 05:35:54;;;;;;;0.90;0.70;;;21.00;83.10;;;;;;5036526;28;20452;-74
2022/06/24 05:38:22;;;;;;;0.80;0.77;;;21.20;83.40;;;;;;5035928;28;20899;-71
2022/06/24 05:40:49;;;;;;;0.70;0.70;;;21.30;82.80;;;;;;5035434;28;20539;-71
2022/06/24 05:43:16;;;;;;;1.30;1.00;;;21.30;82.30;;;;;;5035547;28;21023;-70
2022/06/24 05:45:43;;;;;;;1.00;0.73;;;21.40;83.10;;;;;;5036181;28;20493;-71
2022/06/24 05:48:10;;;;;;;1.27;0.70;;;21.70;82.30;;;;;;5034782;28;20802;-71
2022/06/24 05:50:38;;;;;;;1.23;0.80;;;22.00;82.40;;;;;;5034619;28;20459;-71
2022/06/24 05:55:50;;;;;;;1.47;0.80;;;22.60;80.30;;;;;;5034927;28;20419;-71
2022/06/24 05:58:17;;;;;;;0.70;0.63;;;22.60;79.50;;;;;;5033370;28;20942;-71
2022/06/24 06:00:44;;;;;;;0.90;0.77;;;22.70;78.90;;;;;;5033672;28;21020;-71
2022/06/24 06:03:10;;;;;;;1.00;0.90;;;23.00;79.30;;;;;;5034545;28;20436;-71
2022/06/24 06:05:38;;;;;;;1.17;0.73;;;23.10;77.00;;;;;;5034020;28;20447;-71
2022/06/24 06:08:05;;;;;;;0.70;0.70;;;23.20;77.60;;;;;;5034010;28;20504;-71
2022/06/24 06:10:32;;;;;;;0.80;0.70;;;23.50;76.70;;;;;;5033946;28;20455;-72
2022/06/24 06:12:58;;;;;;;0.80;0.70;;;23.40;76.70;;;;;;5034480;28;20502;-71
2022/06/24 06:15:25;;;;;;;0.80;0.70;;;23.20;77.40;;;;;;5033102;28;20906;-72
2022/06/24 06:17:52;;;;;;;0.80;0.80;;;23.50;77.80;;;;;;5033414;28;20455;-71
2022/06/24 06:20:19;;;;;;;0.80;0.70;;;23.90;75.70;;;;;;5033139;28;20801;-71
2022/06/24 06:22:47;;;;;;;1.17;0.60;;;24.00;76.10;;;;;;5033130;28;20479;-71
2022/06/24 06:25:14;;;;;;;0.90;0.80;;;23.50;75.70;;;;;;5032931;28;20474;-71
2022/06/24 06:27:41;;;;;;;0.90;0.70;;;23.10;76.10;;;;;;5032527;28;20478;-71
2022/06/24 06:30:10;;;;;;;0.80;0.70;;;23.20;75.80;;;;;;5032701;28;20477;-71
2022/06/24 06:32:36;;;;;;;0.70;0.70;;;23.10;75.30;;;;;;5032733;28;20467;-71
2022/06/24 06:35:03;;;;;;;0.80;0.70;;;23.20;77.70;;;;;;5032815;28;20447;-71
2022/06/24 06:37:30;;;;;;;1.40;0.80;;;23.30;75.50;;;;;;5032786;28;20451;-71
2022/06/24 06:39:58;;;;;;;0.80;0.60;;;23.40;74.80;;;;;;5035049;28;20451;-71
2022/06/24 06:42:25;;;;;;;0.70;0.60;;;23.60;75.90;;;;;;5036211;28;20483;-71
2022/06/24 06:44:52;;;;;;;1.00;0.80;;;23.60;73.50;;;;;;5036204;28;20521;-71
2022/06/24 06:47:18;;;;;;;0.80;0.80;;;23.60;73.80;;;;;;5035926;28;20873;-71
2022/06/24 06:49:45;;;;;;;1.27;0.90;;;23.70;74.80;;;;;;5036181;28;20859;-71
2022/06/24 06:52:12;;;;;;;0.70;0.60;;;23.70;75.00;;;;;;5036074;28;20516;-71
2022/06/24 06:54:39;;;;;;;0.90;0.80;;;23.80;75.00;;;;;;5036163;28;20443;-71
2022/06/24 06:57:07;;;;;;;0.80;0.80;;;23.90;75.40;;;;;;5036167;28;20443;-71
2022/06/24 06:59:34;;;;;;;1.00;0.90;;;23.80;74.70;;;;;;5036223;28;20443;-72
2022/06/24 07:02:01;;;;;;;0.90;0.80;;;24.00;75.60;;;;;;5035911;28;20852;-72
2022/06/24 07:04:27;;;;;;;0.70;0.70;;;24.00;71.50;;;;;;5035988;28;20497;-72
2022/06/24 07:06:54;;;;;;;1.20;0.80;;;23.80;72.80;;;;;;5035914;28;20486;-72
2022/06/24 07:09:21;;;;;;;0.70;0.60;;;23.80;73.20;;;;;;5035805;28;20934;-72
2022/06/24 07:11:47;;;;;;;0.70;0.60;;;24.00;73.60;;;;;;5036376;28;20463;-72
2022/06/24 07:14:15;;;;;;;0.80;0.70;;;23.80;72.40;;;;;;5035635;28;20510;-72
2022/06/24 07:16:42;;;;;;;0.70;0.70;;;23.60;73.00;;;;;;5035798;28;20455;-72
2022/06/24 07:19:08;;;;;;;0.80;0.60;;;23.30;72.60;;;;;;5035646;28;20447;-72
2022/06/24 07:21:35;;;;;;;0.70;0.60;;;23.50;72.60;;;;;;5035487;28;20479;-71
2022/06/24 07:24:02;;;;;;;0.80;0.70;;;23.80;71.90;;;;;;5035387;28;20447;-71
2022/06/24 07:26:28;;;;;;;0.80;0.60;;;24.10;73.70;;;;;;5035697;28;20443;-72
2022/06/24 07:28:55;;;;;;;0.80;0.70;;;24.40;70.80;;;;;;5035933;28;20443;-72
2022/06/24 07:31:23;;;;;;;0.70;0.60;;;23.90;71.00;;;;;;5035657;28;20475;-72
2022/06/24 07:33:50;;;;;;;0.80;0.70;;;23.90;70.30;;;;;;5035468;28;20447;-72
2022/06/24 07:36:17;;;;;;;0.70;0.70;;;23.80;71.60;;;;;;5035459;28;20451;-72
2022/06/24 07:38:43;;;;;;;0.80;0.70;;;24.00;71.50;;;;;;5035555;28;20497;-71
2022/06/24 07:41:10;;;;;;;0.70;0.70;;;24.00;71.30;;;;;;5036668;28;20529;-74
2022/06/24 07:43:37;;;;;;;0.70;0.67;;;24.20;71.60;;;;;;5037199;28;20525;-74
2022/06/24 07:46:05;;;;;;;0.80;0.73;;;24.40;71.00;;;;;;5036740;28;20454;-72
2022/06/24 07:48:33;;;;;;;0.70;0.60;;;24.60;70.10;;;;;;5037166;28;20546;-73
2022/06/24 07:51:09;;;;;;;0.80;0.70;;;25.00;68.70;;;;;;5036389;28;20506;-73
2022/06/24 07:53:36;;;;;;;0.70;0.60;;;25.20;68.40;;;;;;5036412;28;20492;-72
2022/06/24 07:58:46;;;;;;;0.80;0.70;;;24.90;67.00;;;;;;5036328;28;20419;-73
2022/06/24 08:01:13;;;;;;;0.70;0.70;;;24.90;65.70;;;;;;5036166;28;20530;-72
2022/06/24 08:03:41;;;;;;;0.70;0.70;;;25.10;65.90;;;;;;5035978;28;20467;-72
2022/06/24 08:06:08;;;;;;;1.00;0.70;;;25.30;64.70;;;;;;5035688;28;20450;-72
2022/06/24 08:08:34;;;;;;;0.80;0.60;;;25.40;64.00;;;;;;5035508;28;20448;-72
2022/06/24 08:11:01;;;;;;;0.80;0.67;;;25.40;63.50;;;;;;5035705;28;20558;-72
2022/06/24 08:13:29;;;;;;;0.70;0.60;;;25.30;65.90;;;;;;5035708;28;20442;-72
2022/06/24 08:15:56;;;;;;;0.70;0.70;;;25.00;67.00;;;;;;5035978;28;20546;-72
2022/06/24 08:18:23;;;;;;;0.70;0.60;;;24.80;66.60;;;;;;5035177;28;20854;-70
2022/06/24 08:20:51;;;;;;;0.70;0.70;;;24.80;66.60;;;;;;5035677;28;20533;-71
2022/06/24 08:23:18;;;;;;;0.80;0.70;;;24.90;65.60;;;;;;5034469;28;20994;-71
2022/06/24 08:25:45;;;;;;;0.80;0.60;;;25.10;66.80;;;;;;5034620;28;20794;-70
2022/06/24 08:28:11;;;;;;;0.70;0.50;;;25.50;65.10;;;;;;5034553;28;20444;-72
2022/06/24 08:30:38;;;;;;;1.00;0.60;;;25.30;65.30;;;;;;5034549;28;20516;-72
2022/06/24 08:33:05;;;;;;;0.77;0.60;;;25.10;64.50;;;;;;5034683;28;20447;-72
2022/06/24 08:35:31;;;;;;;1.00;0.60;;;24.70;64.70;;;;;;5034409;28;20447;-71
2022/06/24 08:38:00;;;;;;;0.70;0.70;;;24.70;66.00;;;;;;5033901;28;20447;-71
2022/06/24 08:40:28;;;;;;;0.70;0.60;;;24.70;65.60;;;;;;5034067;28;20447;-71
2022/06/24 08:42:56;;;;;;;0.90;0.70;;;24.60;68.00;;;;;;5033993;28;20479;-72
2022/06/24 08:45:25;;;;;;;0.70;0.60;;;24.60;66.50;;;;;;5034053;28;20447;-72
2022/06/24 08:47:51;;;;;;;0.70;0.60;;;24.50;65.00;;;;;;5033744;28;20792;-72
2022/06/24 08:50:19;;;;;;;0.80;0.70;;;24.60;66.70;;;;;;5034082;28;20859;-72
2022/06/24 08:52:49;;;;;;;0.70;0.60;;;24.40;65.90;;;;;;5033886;28;20475;-72
2022/06/24 08:55:18;;;;;;;0.80;0.60;;;24.50;66.70;;;;;;5033546;28;20874;-71
2022/06/24 08:57:46;;;;;;;0.83;0.67;;;24.80;66.90;;;;;;5033523;28;20942;-72
2022/06/24 09:00:14;;;;;;;0.80;0.70;;;25.20;65.80;;;;;;5033986;28;20517;-71
2022/06/24 09:02:41;;;;;;;0.70;0.70;;;25.50;64.30;;;;;;5033193;28;20546;-72
2022/06/24 09:05:12;;;;;;;0.80;0.67;;;25.70;63.80;;;;;;5034570;28;20455;-72
2022/06/24 09:07:39;;;;;;;0.80;0.70;;;25.90;63.50;;;;;;5034466;28;20452;-72
2022/06/24 09:10:10;;;;;;;0.70;0.60;;;26.20;63.70;;;;;;5033847;28;20444;-72
2022/06/24 09:12:40;;;;;;;0.70;0.70;;;26.30;63.50;;;;;;5034511;28;20534;-71
2022/06/24 09:15:08;;;;;;;0.70;0.60;;;26.30;62.80;;;;;;5034953;28;21149;-71
2022/06/24 09:17:37;;;;;;;0.70;0.60;;;26.60;62.60;;;;;;5033753;28;20501;-72
2022/06/24 09:20:08;;;;;;;0.80;0.70;;;27.00;62.30;;;;;;5033658;28;20451;-71
2022/06/24 09:22:35;;;;;;;0.70;0.70;;;27.00;61.50;;;;;;5033754;28;20478;-72
2022/06/24 09:25:03;;;;;;;0.77;0.63;;;26.80;60.60;;;;;;5033805;28;20498;-72
2022/06/24 09:27:30;;;;;;;0.80;0.60;;;26.50;61.30;;;;;;5034854;28;20518;-73
2022/06/24 09:29:58;;;;;;;0.80;0.70;;;26.00;63.10;;;;;;5034830;28;21021;-72
2022/06/24 09:32:25;;;;;;;1.07;0.67;;;25.60;64.60;;;;;;5034479;28;20525;-72
2022/06/24 09:34:59;;;;;;;0.90;0.63;;;25.60;65.80;;;;;;5033943;28;20451;-71
2022/06/24 09:37:40;;;;;;;0.80;0.70;;;25.90;66.60;;;;;;5033902;28;20496;-71
2022/06/24 09:40:19;;;;;;;0.70;0.60;;;26.30;63.30;;;;;;5034526;28;20423;-72
2022/06/24 09:42:53;;;;;;;0.90;0.70;;;26.70;60.20;;;;;;5034113;28;20910;-71
2022/06/24 09:45:22;;;;;;;0.80;0.73;;;27.10;59.80;;;;;;5034114;28;20432;-71
2022/06/24 09:47:49;;;;;;;0.70;0.60;;;27.00;59.90;;;;;;5033801;28;20506;-71
2022/06/24 09:50:17;;;;;;;0.70;0.60;;;27.10;61.50;;;;;;5033340;28;20872;-71
2022/06/24 09:52:44;;;;;;;1.00;0.70;;;27.30;60.10;;;;;;5033624;28;20470;-72
2022/06/24 09:55:11;;;;;;;0.80;0.60;;;27.40;60.40;;;;;;5033767;28;20538;-72
2022/06/24 09:57:38;;;;;;;0.80;0.60;;;27.50;58.80;;;;;;5033047;28;20447;-72
2022/06/24 10:02:53;;;;;;;0.80;0.63;;;27.00;59.70;;;;;;5033015;28;20486;-72
2022/06/24 10:05:21;;;;;;;0.70;0.60;;;26.80;59.60;;;;;;5033005;28;20501;-71
2022/06/24 10:07:49;;;;;;;0.80;0.60;;;26.50;61.30;;;;;;5033163;28;20861;-71
2022/06/24 10:10:17;;;;;;;0.70;0.60;;;26.10;62.00;;;;;;5033150;28;20447;-71
2022/06/24 10:12:49;;;;;;;0.93;0.70;;;26.30;61.70;;;;;;5033648;28;20550;-71
2022/06/24 10:15:17;;;;;;;0.70;0.70;;;26.10;61.70;;;;;;5036370;28;20436;-71
2022/06/24 10:17:45;;;;;;;0.90;0.60;;;26.20;64.30;;;;;;5037118;28;20453;-71
2022/06/24 10:20:14;;;;;;;0.70;0.60;;;26.20;64.40;;;;;;5037108;28;20940;-71
2022/06/24 10:22:44;;;;;;;1.00;0.70;;;26.40;62.40;;;;;;5036855;28;20490;-72
2022/06/24 10:25:11;;;;;;;1.00;0.70;;;26.90;63.60;;;;;;5037946;28;20443;-72
2022/06/24 10:28:04;;;;;;;0.70;0.60;;;27.30;58.10;;;;;;5037460;28;20530;-71
2022/06/24 10:30:57;;;;;;;0.90;0.63;;;27.40;57.10;;;;;;5036636;28;20444;-72
2022/06/24 10:33:27;;;;;;;0.90;0.63;;;26.80;58.60;;;;;;5036865;28;20426;-71
2022/06/24 10:36:02;;;;;;;2.30;0.60;;;26.70;60.60;;;;;;5036759;28;20458;-71
2022/06/24 10:38:36;;;;;;;0.70;0.50;;;26.90;58.90;;;;;;5036592;28;20481;-71
2022/06/24 10:41:04;;;;;;;0.70;0.50;;;27.00;57.90;;;;;;5036718;28;20521;-72
2022/06/24 10:43:36;;;;;;;0.70;0.60;;;26.70;59.00;;;;;;5036817;28;20486;-71
2022/06/24 10:46:21;;;;;;;0.70;0.60;;;27.20;59.60;;;;;;5036830;28;20451;-72
2022/06/24 10:48:59;;;;;;;0.90;0.80;;;27.40;58.30;;;;;;5036587;28;20862;-71
2022/06/24 10:51:31;;;;;;;0.90;0.60;;;27.50;59.10;;;;;;5036485;28;20533;-71
2022/06/24 10:54:16;;;;;;;0.70;0.60;;;27.10;58.80;;;;;;5036485;28;20906;-72
2022/06/24 10:56:45;;;;;;;1.00;0.70;;;26.70;60.50;;;;;;5036467;28;20455;-71
2022/06/24 10:59:13;;;;;;;0.70;0.60;;;26.40;59.20;;;;;;5036387;28;20951;-71
2022/06/24 11:01:42;;;;;;;0.70;0.50;;;26.20;59.70;;;;;;5036010;28;20574;-71
2022/06/24 11:04:11;;;;;;;0.90;0.70;;;26.50;60.40;;;;;;5036245;28;20515;-71
2022/06/24 11:06:40;;;;;;;0.70;0.60;;;26.40;60.20;;;;;;5036158;28;21012;-71
2022/06/24 11:09:07;;;;;;;0.70;0.60;;;26.60;59.00;;;;;;5036304;28;20530;-72
2022/06/24 11:11:34;;;;;;;0.70;0.60;;;27.00;59.90;;;;;;5036519;28;20471;-72
2022/06/24 11:14:21;;;;;;;0.97;0.70;;;27.20;60.20;;;;;;5036108;28;20965;-72
2022/06/24 11:16:48;;;;;;;0.70;0.60;;;27.20;59.00;;;;;;5035850;28;20463;-71
2022/06/24 11:19:15;;;;;;;0.80;0.70;;;27.10;58.20;;;;;;5035915;28;20451;-70
2022/06/24 11:21:48;;;;;;;0.80;0.60;;;27.30;58.10;;;;;;5035613;28;20833;-70
2022/06/24 11:24:18;;;;;;;0.80;0.60;;;27.60;58.40;;;;;;5035133;28;20884;-71
2022/06/24 11:27:03;;;;;;;0.70;0.60;;;27.80;57.50;;;;;;5035436;28;20455;-69
2022/06/24 11:29:48;;;;;;;1.07;0.67;;;27.90;58.30;;;;;;5035465;28;20432;-70
2022/06/24 11:32:14;;;;;;;0.90;0.70;;;28.20;58.70;;;;;;5034665;28;20429;-70
2022/06/24 11:34:43;;;;;;;1.00;0.60;;;28.30;59.80;;;;;;5035574;28;20196;-71
2022/06/24 11:37:12;;;;;;;0.70;0.60;;;28.30;59.50;;;;;;5035215;28;20443;-69
2022/06/24 11:39:39;;;;;;;1.00;0.70;;;28.20;60.40;;;;;;5035287;28;20523;-70
2022/06/24 11:42:07;;;;;;;0.80;0.70;;;28.30;60.00;;;;;;5035234;28;20517;-69
2022/06/24 11:44:35;;;;;;;0.80;0.60;;;28.20;60.70;;;;;;5035100;28;20534;-69
2022/06/24 11:47:02;;;;;;;1.20;0.60;;;28.20;61.20;;;;;;5035177;28;20452;-71
2022/06/24 11:49:32;;;;;;;0.77;0.77;;;28.20;59.70;;;;;;5035075;28;20951;-69
2022/06/24 11:52:00;;;;;;;0.70;0.70;;;28.30;59.90;;;;;;5035228;28;20558;-70
2022/06/24 11:54:30;;;;;;;1.10;0.60;;;28.30;60.80;;;;;;5035166;28;20833;-70
2022/06/24 11:56:57;;;;;;;1.00;0.70;;;28.30;60.20;;;;;;5035097;28;20502;-69
2022/06/24 11:59:26;;;;;;;0.70;0.60;;;28.30;60.40;;;;;;5035053;28;20447;-69
2022/06/24 12:01:53;;;;;;;1.23;0.70;;;28.20;60.60;;;;;;5034485;28;20573;-70
2022/06/24 12:04:23;;;;;;;0.90;0.70;;;28.20;60.40;;;;;;5035227;28;20529;-70
2022/06/24 12:06:51;;;;;;;0.80;0.70;;;28.30;60.50;;;;;;5034462;28;20935;-69
2022/06/24 12:09:18;;;;;;;0.90;0.70;;;28.30;60.70;;;;;;5034619;28;20447;-70
2022/06/24 12:11:47;;;;;;;0.80;0.70;;;28.40;60.30;;;;;;5034903;28;20498;-69
2022/06/24 12:14:15;;;;;;;0.70;0.63;;;28.40;59.90;;;;;;5034887;28;20451;-70
2022/06/24 12:17:00;;;;;;;0.70;0.70;;;28.50;59.10;;;;;;5034564;28;20474;-71
2022/06/24 12:19:27;;;;;;;0.70;0.70;;;28.50;58.20;;;;;;5034576;28;20436;-70
2022/06/24 12:22:08;;;;;;;0.70;0.60;;;28.50;57.70;;;;;;5034381;28;20472;-71
2022/06/24 12:24:36;;;;;;;0.90;0.80;;;28.40;58.20;;;;;;5034460;28;20514;-70
2022/06/24 12:27:05;;;;;;;0.70;0.63;;;28.50;58.30;;;;;;5035051;28;20447;-70
2022/06/24 12:29:34;;;;;;;0.80;0.60;;;28.40;58.40;;;;;;5033941;28;20938;-70
2022/06/24 12:32:03;;;;;;;0.70;0.60;;;28.40;57.90;;;;;;5034160;28;20467;-72
2022/06/24 12:34:32;;;;;;;0.70;0.53;;;28.40;58.10;;;;;;5034205;28;20443;-71
2022/06/24 12:37:01;;;;;;;0.70;0.60;;;28.20;57.90;;;;;;5033300;28;20451;-71
2022/06/24 12:39:29;;;;;;;0.70;0.53;;;28.20;57.80;;;;;;5034118;28;20882;-70
2022/06/24 12:41:57;;;;;;;0.90;0.80;;;28.00;58.40;;;;;;5034003;28;20475;-71
2022/06/24 12:44:29;;;;;;;0.70;0.60;;;27.90;58.70;;;;;;5033969;28;20483;-70
2022/06/24 12:52:35;;;;;;;1.00;0.70;;;26.90;64.80;;;;;;5033865;28;20446;-71
2022/06/24 12:55:03;;;;;;;0.80;0.70;;;26.70;66.20;;;;;;5033465;28;20858;-70
2022/06/24 12:57:30;;;;;;;0.80;0.70;;;26.60;66.60;;;;;;5033419;28;21009;-70
2022/06/24 12:59:58;;;;;;;0.70;0.60;;;26.40;67.40;;;;;;5034548;28;20958;-73
2022/06/24 13:02:25;;;;;;;0.80;0.80;;;26.30;67.80;;;;;;5034159;28;20884;-73
2022/06/24 13:04:52;;;;;;;0.80;0.60;;;26.10;68.20;;;;;;5034237;28;20533;-73
2022/06/24 13:07:19;;;;;;;0.70;0.60;;;26.00;68.80;;;;;;5033956;28;20451;-73
2022/06/24 13:09:45;;;;;;;0.80;0.60;;;26.00;69.10;;;;;;5033877;28;20973;-73
2022/06/24 13:12:12;;;;;;;0.70;0.70;;;25.90;69.00;;;;;;5034428;28;20513;-73
2022/06/24 13:14:39;;;;;;;0.70;0.60;;;25.90;69.20;;;;;;5034371;28;20857;-72
2022/06/24 13:17:07;;;;;;;0.70;0.67;;;25.90;69.40;;;;;;5034043;28;20432;-73
2022/06/24 13:19:33;;;;;;;0.93;0.70;;;25.90;69.20;;;;;;5034540;28;20935;-73
2022/06/24 13:22:01;;;;;;;0.70;0.70;;;25.80;69.30;;;;;;5033943;28;20467;-73
2022/06/24 13:24:28;;;;;;;0.70;0.60;;;25.80;69.60;;;;;;5034034;28;20479;-72
2022/06/24 13:26:55;;;;;;;0.83;0.73;;;25.70;69.70;;;;;;5034088;28;20486;-73
2022/06/24 13:29:22;;;;;;;0.70;0.70;;;25.70;70.40;;;;;;5034097;28;20447;-73
2022/06/24 13:31:48;;;;;;;0.80;0.70;;;25.60;70.80;;;;;;5033779;28;20467;-72
2022/06/24 13:34:16;;;;;;;0.80;0.60;;;25.60;69.80;;;;;;5033727;28;20444;-72
2022/06/24 13:36:43;;;;;;;0.70;0.60;;;25.60;69.60;;;;;;5034180;28;20505;-74
2022/06/24 13:39:10;;;;;;;0.70;0.60;;;25.50;70.20;;;;;;5034378;28;20483;-73
2022/06/24 13:41:36;;;;;;;0.80;0.60;;;25.40;70.00;;;;;;5034030;28;20472;-72
2022/06/24 13:44:04;;;;;;;0.70;0.60;;;25.40;70.00;;;;;;5034029;28;20482;-72
2022/06/24 13:47:04;;;;;;;0.90;0.63;;;25.30;69.90;;;;;;5033806;28;20451;-72
2022/06/24 13:49:32;;;;;;;0.80;0.70;;;25.30;69.60;;;;;;5033835;28;20869;-72
2022/06/24 13:51:58;;;;;;;0.70;0.60;;;25.20;69.10;;;;;;5037896;28;20475;-72
2022/06/24 13:54:25;;;;;;;0.80;0.60;;;25.00;70.00;;;;;;5038057;28;20450;-72
2022/06/24 13:56:52;;;;;;;0.80;0.70;;;25.00;70.50;;;;;;5037685;28;20938;-73
2022/06/24 13:59:18;;;;;;;0.70;0.60;;;24.90;71.20;;;;;;5037984;28;20447;-72
2022/06/24 14:01:45;;;;;;;0.80;0.60;;;24.80;72.20;;;;;;5037523;28;20537;-72
2022/06/24 14:04:12;;;;;;;0.70;0.60;;;24.70;73.00;;;;;;5037503;28;20478;-73
2022/06/24 14:06:40;;;;;;;0.70;0.70;;;24.60;73.40;;;;;;5037659;28;20459;-73
2022/06/24 14:09:07;;;;;;;0.70;0.60;;;24.20;72.80;;;;;;5037740;28;20447;-73
2022/06/24 14:11:33;;;;;;;0.90;0.70;;;23.70;76.10;;;;;;5037497;28;20463;-72
2022/06/24 14:14:00;;;;;;;0.70;0.70;;;22.90;79.00;;;;;;5037365;28;20454;-72
2022/06/24 14:16:27;;;;;;;0.83;0.83;;;22.40;81.20;;;;;;5036873;28;20992;-73
2022/06/24 14:18:53;;;;;;;0.90;0.80;;;22.10;81.80;;;;;;5038249;28;20477;-73
2022/06/24 14:21:20;;;;;;;0.80;0.63;;;22.00;82.40;;;;;;5036959;28;20474;-72
2022/06/24 14:26:32;;;;;;;1.70;0.70;;;21.10;85.50;;;;;;5037674;28;20411;-72
2022/06/24 14:28:59;;;;;;;0.80;0.70;;;20.90;84.50;;;;;;5037574;28;20450;-73
2022/06/24 14:31:26;;;;;;;0.80;0.80;;;20.80;84.60;;;;;;5037874;28;20589;-73
2022/06/24 14:33:52;;;;;;;1.00;0.70;;;20.50;85.90;;;;;;5037030;28;20443;-71
2022/06/24 14:36:19;;;;;;;0.70;0.60;;;19.90;87.90;;;;;;5036532;28;20451;-71
2022/06/24 14:41:32;;;;;;;0.80;0.70;;;19.50;89.80;;;;;;5036558;28;20449;-71
2022/06/24 14:43:58;;;;;;;1.50;0.60;;;19.40;91.10;;;;;;5036390;28;20528;-71
2022/06/24 14:46:25;;;;;;;1.27;0.77;;;19.20;91.90;;;;;;5036391;28;20452;-70
2022/06/24 14:48:52;;;;;;;0.70;0.60;;;19.20;91.30;;;;;;5036504;28;20462;-71
2022/06/24 14:51:18;;;;;;;0.80;0.73;;;19.20;91.00;;;;;;5036196;28;20544;-71
2022/06/24 14:53:45;;;;;;;0.70;0.60;;;19.10;90.60;;;;;;5035911;28;20861;-71
2022/06/24 14:56:13;;;;;;;0.70;0.70;;;19.10;90.70;;;;;;5036159;28;20454;-71
2022/06/24 14:58:40;;;;;;;0.80;0.70;;;19.20;91.10;;;;;;5036117;28;20443;-70
2022/06/24 15:01:06;;;;;;;0.70;0.67;;;19.10;91.00;;;;;;5034946;28;20493;-71
2022/06/24 15:03:33;;;;;;;0.80;0.67;;;19.10;91.00;;;;;;5035779;28;20451;-70
2022/06/24 15:05:59;;;;;;;0.80;0.70;;;19.30;91.10;;;;;;5036306;28;20570;-72
2022/06/24 15:08:26;;;;;;;0.80;0.70;;;19.50;90.30;;;;;;5035981;28;20486;-71
2022/06/24 15:10:53;;;;;;;0.70;0.70;;;19.70;89.90;;;;;;5035954;28;20533;-70
2022/06/24 15:13:21;;;;;;;0.70;0.60;;;19.80;89.20;;;;;;5035895;28;20483;-72
2022/06/24 15:15:48;;;;;;;1.10;0.80;;;19.90;89.20;;;;;;5037183;28;21000;-71
2022/06/24 15:18:15;;;;;;;0.70;0.60;;;20.10;87.60;;;;;;5035408;28;20797;-71
2022/06/24 15:20:42;;;;;;;0.90;0.70;;;20.20;87.10;;;;;;5035609;28;20538;-70
2022/06/24 15:23:08;;;;;;;0.70;0.60;;;20.40;86.30;;;;;;5035618;28;20707;-72
2022/06/24 15:25:35;;;;;;;0.70;0.60;;;20.60;85.50;;;;;;5035490;28;20483;-71
2022/06/24 15:28:02;;;;;;;0.70;0.63;;;20.70;84.40;;;;;;5035455;28;20517;-70
2022/06/24 15:30:30;;;;;;;0.80;0.60;;;20.70;84.70;;;;;;5035335;28;20451;-72
2022/06/24 15:32:57;;;;;;;0.70;0.60;;;20.70;85.30;;;;;;5035384;28;20443;-71
2022/06/24 15:35:24;;;;;;;0.70;0.57;;;20.80;85.00;;;;;;5035351;28;20439;-70
2022/06/24 15:37:51;;;;;;;0.70;0.60;;;20.80;84.90;;;;;;5035417;28;20942;-71
2022/06/24 15:40:17;;;;;;;0.77;0.60;;;20.60;84.30;;;;;;5035026;28;20939;-70
2022/06/24 15:42:44;;;;;;;0.70;0.60;;;20.40;86.20;;;;;;5035299;28;20529;-70
2022/06/24 15:45:11;;;;;;;0.77;0.63;;;20.40;86.40;;;;;;5034987;28;20598;-71
2022/06/24 15:47:39;;;;;;;0.80;0.60;;;20.60;86.80;;;;;;5035175;28;20470;-71
2022/06/24 15:50:07;;;;;;;0.70;0.60;;;20.40;86.10;;;;;;5035194;28;20868;-71
2022/06/24 15:52:33;;;;;;;0.80;0.60;;;20.30;86.70;;;;;;5034992;28;20471;-71
2022/06/24 15:55:00;;;;;;;1.00;0.60;;;20.40;86.60;;;;;;5034970;28;20451;-70
2022/06/24 15:57:28;;;;;;;0.70;0.70;;;20.30;87.30;;;;;;5034982;28;20505;-71
2022/06/24 15:59:54;;;;;;;0.73;0.63;;;20.40;88.00;;;;;;5034919;28;20814;-71
2022/06/24 16:02:21;;;;;;;0.70;0.60;;;20.50;87.40;;;;;;5034544;28;20900;-70
2022/06/24 16:04:49;;;;;;;0.70;0.60;;;20.60;86.20;;;;;;5034837;28;20479;-70
2022/06/24 16:07:16;;;;;;;0.70;0.70;;;20.50;86.40;;;;;;5036031;28;20447;-73
2022/06/24 16:09:43;;;;;;;0.70;0.60;;;20.60;87.10;;;;;;5036996;28;20450;-74
2022/06/24 16:14:54;;;;;;;0.70;0.57;;;20.80;86.10;;;;;;5037742;28;20394;-74
2022/06/24 16:17:22;;;;;;;1.67;0.70;;;20.80;85.50;;;;;;5035106;28;20501;-73